createdAt,value
2022-09-28T00:02:21.055Z,8.63
2022-09-28T00:05:27.094Z,8.73
2022-09-28T00:08:29.778Z,8.59
2022-09-28T00:11:33.340Z,8.67
2022-09-28T00:14:35.843Z,8.37
2022-09-28T00:17:38.514Z,8.35
2022-09-28T00:20:40.937Z,8.33
2022-09-28T00:24:02.763Z,8.48
2022-09-28T00:27:06.158Z,8.37
2022-09-28T00:30:09.527Z,8.44
2022-09-28T00:33:11.959Z,8.09
2022-09-28T00:36:14.655Z,7.93
2022-09-28T00:39:17.948Z,7.72
2022-09-28T00:42:23.088Z,7.47
2022-09-28T00:45:26.199Z,7.41
2022-09-28T00:48:33.479Z,7.30
2022-09-28T00:51:36.404Z,7.24
2022-09-28T00:54:39.577Z,7.27
2022-09-28T00:57:45.735Z,7.26
2022-09-28T01:00:50.962Z,7.45
2022-09-28T01:03:54.323Z,7.23
2022-09-28T01:06:58.311Z,7.14
2022-09-28T01:10:01.006Z,7.25
2022-09-28T01:13:03.876Z,7.17
2022-09-28T01:16:15.739Z,7.00
2022-09-28T01:19:22.540Z,6.90
2022-09-28T01:22:37.693Z,6.77
2022-09-28T01:25:59.132Z,6.76
2022-09-28T01:29:06.614Z,6.61
2022-09-28T01:32:17.472Z,6.48
2022-09-28T01:35:33.673Z,6.49
2022-09-28T01:38:44.621Z,6.39
2022-09-28T01:41:51.347Z,6.46
2022-09-28T01:44:57.252Z,6.44
2022-09-28T01:48:03.195Z,6.48
2022-09-28T01:51:11.855Z,6.44
2022-09-28T01:54:31.482Z,6.36
2022-09-28T01:57:42.612Z,6.26
2022-09-28T02:00:49.663Z,6.25
2022-09-28T02:04:12.688Z,6.55
2022-09-28T02:07:34.770Z,6.62
2022-09-28T02:10:44.418Z,6.75
2022-09-28T02:14:08.060Z,6.92
2022-09-28T02:17:11.565Z,7.12
2022-09-28T02:20:16.360Z,7.20
2022-09-28T02:23:22.254Z,7.32
2022-09-28T02:26:37.037Z,7.39
2022-09-28T02:29:39.800Z,7.51
2022-09-28T02:32:45.412Z,7.53
2022-09-28T02:35:48.063Z,7.45
2022-09-28T02:38:52.293Z,7.27
2022-09-28T02:42:11.370Z,7.06
2022-09-28T02:45:14.240Z,6.93
2022-09-28T02:48:55.792Z,6.78
2022-09-28T02:52:32.330Z,6.64
2022-09-28T02:55:43.966Z,6.45
2022-09-28T02:59:04.245Z,6.38
2022-09-28T03:02:41.964Z,6.32
2022-09-28T03:06:29.650Z,6.35
2022-09-28T03:09:45.599Z,6.40
2022-09-28T03:12:49.173Z,6.40
2022-09-28T03:15:51.653Z,6.39
2022-09-28T03:18:54.412Z,6.43
2022-09-28T03:21:56.957Z,6.43
2022-09-28T03:24:59.653Z,6.52
2022-09-28T03:28:02.868Z,6.42
2022-09-28T03:31:06.587Z,6.31
2022-09-28T03:34:09.252Z,6.19
2022-09-28T03:37:11.923Z,6.10
2022-09-28T03:40:14.866Z,5.92
2022-09-28T03:43:17.823Z,5.95
2022-09-28T03:46:20.704Z,6.01
2022-09-28T03:49:24.006Z,5.95
2022-09-28T03:52:26.483Z,5.88
2022-09-28T03:55:29.267Z,5.80
2022-09-28T03:58:32.020Z,5.71
2022-09-28T04:01:34.875Z,5.78
2022-09-28T04:04:37.674Z,5.91
2022-09-28T04:07:40.190Z,5.89
2022-09-28T04:10:43.035Z,5.78
2022-09-28T04:13:48.349Z,5.62
2022-09-28T04:16:54.322Z,5.68
2022-09-28T04:19:57.834Z,5.52
2022-09-28T04:23:00.845Z,5.52
2022-09-28T04:26:06.387Z,5.49
2022-09-28T04:29:19.413Z,5.35
2022-09-28T04:32:22.500Z,5.18
2022-09-28T04:35:26.371Z,5.25
2022-09-28T04:38:48.859Z,5.16
2022-09-28T04:41:52.426Z,5.29
2022-09-28T04:44:57.204Z,5.29
2022-09-28T04:48:00.032Z,5.26
2022-09-28T04:51:02.813Z,5.30
2022-09-28T04:54:06.046Z,5.36
2022-09-28T04:57:08.548Z,5.39
2022-09-28T05:00:13.267Z,5.41
2022-09-28T05:03:17.809Z,5.41
2022-09-28T05:06:22.967Z,5.47
2022-09-28T05:09:26.504Z,5.71
2022-09-28T05:12:29.237Z,5.87
2022-09-28T05:15:31.736Z,6.06
2022-09-28T05:18:34.548Z,6.07
2022-09-28T05:21:37.069Z,6.10
2022-09-28T05:24:39.903Z,6.13
2022-09-28T05:27:42.444Z,6.22
2022-09-28T05:31:01.496Z,6.27
2022-09-28T05:34:04.299Z,6.40
2022-09-28T05:37:07.104Z,6.46
2022-09-28T05:40:10.250Z,6.54
2022-09-28T05:43:13.996Z,6.70
2022-09-28T05:46:16.983Z,6.81
2022-09-28T05:49:20.023Z,6.89
2022-09-28T05:52:22.681Z,7.19
2022-09-28T05:55:25.882Z,7.27
2022-09-28T05:58:28.927Z,7.28
2022-09-28T06:01:32.024Z,7.56
2022-09-28T06:04:35.180Z,7.75
2022-09-28T06:07:37.690Z,7.85
2022-09-28T06:10:41.036Z,7.96
2022-09-28T06:13:43.588Z,8.10
2022-09-28T06:16:47.443Z,8.21
2022-09-28T06:19:52.374Z,8.31
2022-09-28T06:22:56.092Z,8.52
2022-09-28T06:25:59.944Z,8.58
2022-09-28T06:29:03.605Z,8.80
2022-09-28T06:32:07.452Z,8.83
2022-09-28T06:35:10.851Z,8.89
2022-09-28T06:38:13.535Z,8.82
2022-09-28T06:41:16.727Z,8.59
2022-09-28T06:44:20.126Z,8.78
2022-09-28T06:47:24.275Z,9.04
2022-09-28T06:50:32.257Z,8.97
2022-09-28T06:53:37.458Z,9.16
2022-09-28T06:56:42.851Z,9.20
2022-09-28T06:59:45.771Z,9.16
2022-09-28T07:02:48.273Z,9.15
2022-09-28T07:05:54.080Z,9.06
2022-09-28T07:09:24.653Z,9.21
2022-09-28T07:12:35.276Z,9.21
2022-09-28T07:15:38.202Z,9.29
2022-09-28T07:18:42.338Z,9.24
2022-09-28T07:21:46.810Z,9.41
2022-09-28T07:24:51.104Z,9.70
2022-09-28T07:27:59.683Z,9.51
2022-09-28T07:31:03.456Z,9.80
2022-09-28T07:34:06.765Z,9.99
2022-09-28T07:37:13.495Z,10.16
2022-09-28T07:40:34.732Z,10.87
2022-09-28T07:43:40.061Z,10.89
2022-09-28T07:46:43.417Z,11.24
2022-09-28T07:49:46.597Z,11.35
2022-09-28T07:52:49.553Z,11.46
2022-09-28T07:56:02.148Z,11.50
2022-09-28T07:59:05.324Z,12.02
2022-09-28T08:02:09.443Z,14.49
2022-09-28T08:05:12.504Z,16.00
2022-09-28T08:08:15.520Z,15.21
2022-09-28T08:11:19.449Z,16.77
2022-09-28T08:14:22.425Z,17.51
2022-09-28T08:17:27.113Z,18.37
2022-09-28T08:20:51.619Z,16.71
2022-09-28T08:23:54.663Z,19.03
2022-09-28T08:26:57.275Z,17.59
2022-09-28T08:30:02.251Z,20.07
2022-09-28T08:33:07.822Z,18.86
2022-09-28T08:36:12.400Z,19.52
2022-09-28T08:39:16.144Z,20.60
2022-09-28T08:42:34.998Z,20.16
2022-09-28T08:45:37.822Z,20.62
2022-09-28T08:52:30.410Z,19.74
2022-09-28T08:55:37.003Z,21.44
2022-09-28T08:58:45.922Z,19.18
2022-09-28T09:01:56.175Z,21.55
2022-09-28T09:05:00.855Z,22.79
2022-09-28T09:08:45.520Z,22.92
2022-09-28T09:12:19.366Z,21.81
2022-09-28T09:15:48.213Z,22.44
2022-09-28T09:19:16.551Z,22.12
2022-09-28T09:22:35.064Z,22.04
2022-09-28T09:25:43.179Z,22.72
2022-09-28T09:28:56.283Z,24.25
2022-09-28T09:32:06.350Z,24.61
2022-09-28T09:35:30.780Z,23.97
2022-09-28T09:38:39.733Z,23.92
2022-09-28T09:42:28.233Z,24.01
2022-09-28T09:46:00.225Z,25.48
2022-09-28T09:49:19.785Z,24.52
2022-09-28T09:52:48.560Z,21.98
2022-09-28T09:55:57.331Z,21.23
2022-09-28T09:59:07.976Z,20.66
2022-09-28T10:02:34.748Z,19.26
2022-09-28T10:05:39.318Z,19.14
2022-09-28T10:08:46.163Z,19.16
2022-09-28T10:11:50.327Z,18.73
2022-09-28T10:14:54.817Z,18.61
2022-09-28T10:18:06.797Z,17.81
2022-09-28T10:21:18.574Z,18.05
2022-09-28T10:24:31.566Z,17.80
2022-09-28T10:27:35.675Z,17.98
2022-09-28T10:30:44.287Z,18.35
2022-09-28T10:33:47.068Z,18.91
2022-09-28T10:36:58.486Z,19.97
2022-09-28T10:40:02.300Z,20.95
2022-09-28T10:43:08.310Z,19.77
2022-09-28T10:46:12.993Z,20.51
2022-09-28T10:49:17.953Z,20.12
2022-09-28T10:52:41.685Z,19.50
2022-09-28T10:56:00.352Z,19.54
2022-09-28T10:59:02.954Z,19.35
2022-09-28T11:02:26.536Z,19.43
2022-09-28T11:05:30.194Z,19.14
2022-09-28T11:08:44.330Z,18.28
2022-09-28T11:11:47.590Z,17.98
2022-09-28T11:14:56.956Z,17.59
2022-09-28T11:18:32.491Z,17.34
2022-09-28T11:21:43.902Z,17.65
2022-09-28T11:24:47.358Z,17.68
2022-09-28T11:27:52.950Z,17.73
2022-09-28T11:30:55.506Z,18.02
2022-09-28T11:34:07.334Z,17.91
2022-09-28T11:37:32.108Z,18.12
2022-09-28T11:40:55.084Z,18.00
2022-09-28T11:44:12.608Z,18.04
2022-09-28T11:47:30.397Z,18.01
2022-09-28T11:50:42.940Z,17.68
2022-09-28T11:53:50.756Z,17.58
2022-09-28T11:56:53.681Z,17.75
2022-09-28T12:00:08.318Z,17.48
2022-09-28T12:03:24.398Z,17.50
2022-09-28T12:06:51.697Z,17.58
2022-09-28T12:10:13.287Z,17.62
2022-09-28T12:13:22.556Z,17.97
2022-09-28T12:17:00.559Z,17.79
2022-09-28T12:20:09.055Z,17.67
2022-09-28T12:23:15.722Z,17.19
2022-09-28T12:26:37.170Z,17.46
2022-09-28T12:29:55.030Z,17.24
2022-09-28T12:33:15.424Z,17.17
2022-09-28T12:36:30.583Z,17.48
2022-09-28T12:39:58.965Z,17.30
2022-09-28T12:43:17.653Z,17.28
2022-09-28T12:46:23.284Z,17.23
2022-09-28T12:54:02.889Z,16.88
2022-09-28T12:57:05.261Z,16.84
2022-09-28T13:00:10.794Z,16.94
2022-09-28T13:03:29.067Z,16.91
2022-09-28T13:07:02.605Z,17.14
2022-09-28T13:10:22.095Z,17.10
2022-09-28T13:13:31.548Z,17.08
2022-09-28T13:17:03.907Z,17.35
2022-09-28T13:20:24.805Z,17.65
2022-09-28T13:23:34.913Z,17.66
2022-09-28T13:26:41.027Z,17.65
2022-09-28T13:29:43.542Z,17.92
2022-09-28T13:32:47.639Z,17.84
2022-09-28T13:35:50.148Z,17.69
2022-09-28T13:38:54.378Z,17.71
2022-09-28T13:41:56.984Z,17.53
2022-09-28T13:45:15.095Z,17.41
2022-09-28T13:48:20.665Z,17.52
2022-09-28T13:51:42.163Z,17.52
2022-09-28T13:54:59.781Z,17.59
2022-09-28T13:58:06.581Z,17.43
2022-09-28T14:01:13.145Z,17.39
2022-09-28T14:04:21.941Z,17.28
2022-09-28T14:07:25.745Z,17.43
2022-09-28T14:10:53.708Z,17.29
2022-09-28T14:14:08.425Z,17.33
2022-09-28T14:17:29.260Z,17.46
2022-09-28T14:20:35.109Z,17.37
2022-09-28T14:24:05.532Z,17.26
2022-09-28T14:27:13.179Z,17.07
2022-09-28T14:30:17.900Z,16.96
2022-09-28T14:33:31.064Z,16.97
2022-09-28T14:37:01.655Z,17.08
2022-09-28T14:40:40.050Z,16.94
2022-09-28T14:43:45.783Z,17.01
2022-09-28T14:46:48.636Z,16.92
2022-09-28T14:50:00.580Z,16.87
2022-09-28T14:53:12.175Z,16.72
2022-09-28T14:56:14.896Z,16.80
2022-09-28T14:59:19.198Z,16.69
2022-09-28T15:02:24.820Z,16.64
2022-09-28T15:05:35.964Z,16.62
2022-09-28T15:08:39.747Z,16.61
2022-09-28T15:11:42.963Z,16.52
2022-09-28T15:14:50.264Z,16.50
2022-09-28T15:18:02.759Z,16.54
2022-09-28T15:21:05.605Z,16.57
2022-09-28T15:25:04.809Z,16.54
2022-09-28T15:28:18.637Z,16.40
2022-09-28T15:31:24.412Z,16.38
2022-09-28T15:34:49.781Z,16.32
2022-09-28T15:37:53.000Z,16.21
2022-09-28T15:40:56.158Z,16.18
2022-09-28T15:44:23.505Z,16.09
2022-09-28T15:47:28.440Z,16.01
2022-09-28T15:50:33.091Z,15.94
2022-09-28T15:53:36.106Z,15.85
2022-09-28T15:56:59.616Z,15.81
2022-09-28T16:00:04.665Z,15.73
2022-09-28T16:03:16.746Z,15.67
2022-09-28T16:06:19.488Z,15.57
2022-09-28T16:10:01.714Z,15.49
2022-09-28T16:13:16.580Z,15.40
2022-09-28T16:16:31.382Z,15.26
2022-09-28T16:19:38.107Z,15.17
2022-09-28T16:22:43.021Z,15.10
2022-09-28T16:25:51.846Z,15.03
2022-09-28T16:28:54.632Z,14.93
2022-09-28T16:31:57.377Z,14.89
2022-09-28T16:35:20.260Z,14.78
2022-09-28T16:38:23.004Z,14.75
2022-09-28T16:41:27.553Z,14.68
2022-09-28T16:44:32.761Z,14.70
2022-09-28T16:47:36.018Z,14.65
2022-09-28T16:50:38.781Z,14.55
2022-09-28T16:54:00.135Z,14.52
2022-09-28T16:57:04.060Z,14.47
2022-09-28T17:00:07.478Z,14.42
2022-09-28T17:03:14.829Z,14.38
2022-09-28T17:06:25.335Z,14.34
2022-09-28T17:09:28.212Z,14.30
2022-09-28T17:12:30.631Z,14.27
2022-09-28T17:15:33.672Z,14.23
2022-09-28T17:18:39.157Z,14.18
2022-09-28T17:21:49.683Z,14.13
2022-09-28T17:24:52.065Z,14.05
2022-09-28T17:27:56.652Z,13.98
2022-09-28T17:30:59.244Z,13.92
2022-09-28T17:34:02.003Z,13.79
2022-09-28T17:37:04.530Z,13.82
2022-09-28T17:40:13.012Z,13.91
2022-09-28T17:43:15.534Z,13.88
2022-09-28T17:46:27.032Z,13.87
2022-09-28T17:49:29.483Z,13.84
2022-09-28T17:52:32.296Z,13.82
2022-09-28T17:55:36.878Z,13.79
2022-09-28T17:58:39.643Z,13.78
2022-09-28T18:01:42.267Z,13.71
2022-09-28T18:04:52.193Z,13.73
2022-09-28T18:07:55.172Z,13.67
2022-09-28T18:10:58.087Z,13.64
2022-09-28T18:14:00.906Z,13.60
2022-09-28T18:17:03.696Z,13.53
2022-09-28T18:20:08.850Z,13.51
2022-09-28T18:23:11.763Z,13.50
2022-09-28T18:26:15.364Z,13.49
2022-09-28T18:29:18.330Z,13.48
2022-09-28T18:32:20.974Z,13.46
2022-09-28T18:35:23.672Z,13.51
2022-09-28T18:38:26.465Z,13.59
2022-09-28T18:41:29.398Z,13.64
2022-09-28T18:44:31.969Z,13.67
2022-09-28T18:47:35.005Z,13.67
2022-09-28T18:50:37.644Z,13.62
2022-09-28T18:53:40.771Z,13.51
2022-09-28T18:56:43.239Z,13.48
2022-09-28T18:59:46.441Z,13.44
2022-09-28T19:02:49.024Z,13.41
2022-09-28T19:05:51.814Z,13.36
2022-09-28T19:08:55.753Z,13.28
2022-09-28T19:11:58.579Z,13.23
2022-09-28T19:15:01.087Z,13.23
2022-09-28T19:18:04.503Z,13.23
2022-09-28T19:21:09.282Z,13.26
2022-09-28T19:24:16.808Z,13.28
2022-09-28T19:27:19.434Z,13.33
2022-09-28T19:30:22.230Z,13.35
2022-09-28T19:33:24.742Z,13.37
2022-09-28T19:36:28.727Z,13.38
2022-09-28T19:39:31.237Z,13.41
2022-09-28T19:42:36.284Z,13.44
2022-09-28T19:45:39.794Z,13.42
2022-09-28T19:48:43.444Z,13.43
2022-09-28T19:52:10.931Z,13.42
2022-09-28T19:55:11.356Z,13.36
2022-09-28T19:58:13.938Z,13.35
2022-09-28T20:01:16.828Z,13.30
2022-09-28T20:04:22.886Z,13.27
2022-09-28T20:07:25.317Z,13.25
2022-09-28T20:10:28.041Z,13.23
2022-09-28T20:13:32.093Z,13.22
2022-09-28T20:16:36.225Z,13.22
2022-09-28T20:19:39.229Z,13.18
2022-09-28T20:22:43.612Z,13.14
2022-09-28T20:25:46.033Z,13.12
2022-09-28T20:28:48.796Z,13.15
2022-09-28T20:31:51.918Z,13.14
2022-09-28T20:34:54.746Z,13.14
2022-09-28T20:37:59.562Z,13.15
2022-09-28T20:41:02.627Z,13.11
2022-09-28T20:44:06.536Z,13.11
2022-09-28T20:47:09.600Z,13.12
2022-09-28T20:50:12.032Z,13.12
2022-09-28T20:53:14.756Z,13.09
2022-09-28T20:56:20.435Z,13.09
2022-09-28T20:59:25.966Z,13.11
2022-09-28T21:02:28.617Z,13.08
2022-09-28T21:05:31.413Z,13.08
2022-09-28T21:08:34.188Z,13.11
2022-09-28T21:11:37.675Z,13.12
2022-09-28T21:14:40.173Z,13.12
2022-09-28T21:17:43.627Z,13.11
2022-09-28T21:20:50.911Z,13.12
2022-09-28T21:23:54.457Z,13.12
2022-09-28T21:26:57.651Z,13.11
2022-09-28T21:30:01.035Z,13.07
2022-09-28T21:33:03.584Z,13.02
2022-09-28T21:36:07.478Z,12.99
2022-09-28T21:39:10.668Z,13.03
2022-09-28T21:42:13.484Z,13.02
2022-09-28T21:45:17.046Z,12.95
2022-09-28T21:48:20.891Z,12.87
2022-09-28T21:51:23.507Z,12.87
2022-09-28T21:54:28.965Z,12.84
2022-09-28T21:57:31.418Z,12.80
2022-09-28T22:00:34.574Z,12.75
2022-09-28T22:03:37.363Z,12.85
2022-09-28T22:06:39.878Z,12.87
2022-09-28T22:09:42.629Z,12.79
2022-09-28T22:12:45.127Z,12.77
2022-09-28T22:15:53.148Z,12.73
2022-09-28T22:18:55.703Z,12.69
2022-09-28T22:21:59.712Z,12.67
2022-09-28T22:25:02.180Z,12.64
2022-09-28T22:28:04.900Z,12.56
2022-09-28T22:31:07.441Z,12.60
2022-09-28T22:34:10.305Z,12.57
2022-09-28T22:37:12.721Z,12.51
2022-09-28T22:40:15.448Z,12.49
2022-09-28T22:43:18.857Z,12.48
2022-09-28T22:46:26.882Z,12.39
2022-09-28T22:49:29.521Z,12.35
2022-09-28T22:52:32.502Z,12.33
2022-09-28T22:55:34.920Z,12.37
2022-09-28T22:58:38.292Z,12.36
2022-09-28T23:01:40.826Z,12.37
2022-09-28T23:04:43.677Z,12.33
2022-09-28T23:07:46.231Z,12.32
2022-09-28T23:10:49.132Z,12.32
2022-09-28T23:13:53.185Z,12.30
2022-09-28T23:16:55.916Z,12.27
2022-09-28T23:19:58.370Z,12.27
2022-09-28T23:23:01.230Z,12.26
2022-09-28T23:26:14.694Z,12.30
2022-09-28T23:29:17.658Z,12.26
2022-09-28T23:32:20.233Z,12.25
2022-09-28T23:35:23.019Z,12.21
2022-09-28T23:38:26.423Z,12.12
2022-09-28T23:41:29.564Z,12.04
2022-09-28T23:44:32.781Z,11.93
2022-09-28T23:47:37.383Z,11.86
2022-09-28T23:50:39.842Z,11.77
2022-09-28T23:53:43.350Z,11.76
2022-09-28T23:56:45.764Z,11.70
2022-09-28T23:59:48.479Z,11.69
